Albion, New Jersey
Current Conditions -  °F | °C
As of 7:54 PM on Friday 28 Nov 2014 (Local Time) from KVAY Reporting Station
Clear Clear  
Wind Chill: 29°   Ceiling: Unl
Heat Index: 29°   Visibility: 10mi
Dew Point: 16°   Wind: 0mph
Humidity: 58%   Direction: NA
Pressure: 30.28"   Gusts: NA
Location:  39.7587°N, 74.9349°W
Report Text: KVAY 290054Z AUTO 00000KT 10SM CLR M02/M09 A3028 RMK AO2 SLP252 T10171089
Loading
Personal Weather Stations






























Interactive Weather Map New forecast layout! Learn more

10-Day Weather Forecast

Advertisements
Track Severe Weather on mobile